sensor_id;sensor_type;location;lat;lon;timestamp;P1;durP1;ratioP1;P2;durP2;ratioP2
52742;SDS011;55583;53.012;6.556;2022-11-15T00:01:51;42.35;;;24.20;;
52742;SDS011;55583;53.012;6.556;2022-11-15T00:04:16;37.03;;;23.30;;
52742;SDS011;55583;53.012;6.556;2022-11-15T00:06:42;43.90;;;24.17;;
52742;SDS011;55583;53.012;6.556;2022-11-15T00:09:08;46.67;;;25.52;;
52742;SDS011;55583;53.012;6.556;2022-11-15T00:11:33;44.58;;;24.58;;
52742;SDS011;55583;53.012;6.556;2022-11-15T00:13:59;48.35;;;26.67;;
52742;SDS011;55583;53.012;6.556;2022-11-15T00:16:27;47.58;;;25.77;;
52742;SDS011;55583;53.012;6.556;2022-11-15T00:18:55;49.80;;;27.27;;
52742;SDS011;55583;53.012;6.556;2022-11-15T00:21:22;42.42;;;24.20;;
52742;SDS011;55583;53.012;6.556;2022-11-15T00:23:47;44.80;;;25.65;;
52742;SDS011;55583;53.012;6.556;2022-11-15T00:26:14;46.63;;;27.73;;
52742;SDS011;55583;53.012;6.556;2022-11-15T00:28:40;44.28;;;26.00;;
52742;SDS011;55583;53.012;6.556;2022-11-15T00:31:07;49.78;;;26.45;;
52742;SDS011;55583;53.012;6.556;2022-11-15T00:33:36;43.97;;;25.52;;
52742;SDS011;55583;53.012;6.556;2022-11-15T00:36:02;47.95;;;26.35;;
52742;SDS011;55583;53.012;6.556;2022-11-15T00:38:33;40.08;;;24.33;;
52742;SDS011;55583;53.012;6.556;2022-11-15T00:41:00;41.47;;;23.15;;
52742;SDS011;55583;53.012;6.556;2022-11-15T00:43:26;43.72;;;25.73;;
52742;SDS011;55583;53.012;6.556;2022-11-15T00:45:52;40.13;;;24.27;;
52742;SDS011;55583;53.012;6.556;2022-11-15T00:48:21;41.10;;;22.45;;
52742;SDS011;55583;53.012;6.556;2022-11-15T00:50:47;39.45;;;23.70;;
52742;SDS011;55583;53.012;6.556;2022-11-15T00:53:14;38.67;;;22.15;;
52742;SDS011;55583;53.012;6.556;2022-11-15T00:55:39;39.05;;;21.52;;
52742;SDS011;55583;53.012;6.556;2022-11-15T00:58:05;39.20;;;23.00;;
52742;SDS011;55583;53.012;6.556;2022-11-15T01:00:31;34.50;;;22.02;;
52742;SDS011;55583;53.012;6.556;2022-11-15T01:02:56;33.92;;;20.80;;
52742;SDS011;55583;53.012;6.556;2022-11-15T01:05:22;32.45;;;20.65;;
52742;SDS011;55583;53.012;6.556;2022-11-15T01:07:51;34.20;;;21.77;;
52742;SDS011;55583;53.012;6.556;2022-11-15T01:10:17;38.55;;;23.40;;
52742;SDS011;55583;53.012;6.556;2022-11-15T01:12:43;39.22;;;23.60;;
52742;SDS011;55583;53.012;6.556;2022-11-15T01:15:09;36.90;;;22.95;;
52742;SDS011;55583;53.012;6.556;2022-11-15T01:17:35;42.15;;;25.40;;
52742;SDS011;55583;53.012;6.556;2022-11-15T01:20:00;40.38;;;24.00;;
52742;SDS011;55583;53.012;6.556;2022-11-15T01:22:26;36.67;;;23.20;;
52742;SDS011;55583;53.012;6.556;2022-11-15T01:24:51;40.78;;;25.10;;
52742;SDS011;55583;53.012;6.556;2022-11-15T01:27:17;42.38;;;23.55;;
52742;SDS011;55583;53.012;6.556;2022-11-15T01:29:43;42.60;;;24.15;;
52742;SDS011;55583;53.012;6.556;2022-11-15T01:32:08;38.33;;;21.88;;
52742;SDS011;55583;53.012;6.556;2022-11-15T01:34:34;42.70;;;23.95;;
52742;SDS011;55583;53.012;6.556;2022-11-15T01:37:00;39.72;;;21.83;;
52742;SDS011;55583;53.012;6.556;2022-11-15T01:39:28;38.63;;;21.67;;
52742;SDS011;55583;53.012;6.556;2022-11-15T01:41:53;37.83;;;21.00;;
52742;SDS011;55583;53.012;6.556;2022-11-15T01:44:37;39.97;;;22.67;;
52742;SDS011;55583;53.012;6.556;2022-11-15T01:47:46;37.17;;;20.75;;
52742;SDS011;55583;53.012;6.556;2022-11-15T01:49:58;34.35;;;20.90;;
52742;SDS011;55583;53.012;6.556;2022-11-15T01:52:33;36.95;;;22.50;;
52742;SDS011;55583;53.012;6.556;2022-11-15T01:55:18;44.45;;;22.77;;
52742;SDS011;55583;53.012;6.556;2022-11-15T01:57:48;43.95;;;22.98;;
52742;SDS011;55583;53.012;6.556;2022-11-15T02:00:18;42.72;;;22.08;;
52742;SDS011;55583;53.012;6.556;2022-11-15T02:02:44;42.35;;;22.55;;
52742;SDS011;55583;53.012;6.556;2022-11-15T02:05:09;48.70;;;24.27;;
52742;SDS011;55583;53.012;6.556;2022-11-15T02:07:36;43.67;;;24.08;;
52742;SDS011;55583;53.012;6.556;2022-11-15T02:10:04;42.65;;;23.23;;
52742;SDS011;55583;53.012;6.556;2022-11-15T02:12:36;39.97;;;22.85;;
52742;SDS011;55583;53.012;6.556;2022-11-15T02:15:02;41.47;;;23.52;;
52742;SDS011;55583;53.012;6.556;2022-11-15T02:20:42;49.92;;;25.02;;
52742;SDS011;55583;53.012;6.556;2022-11-15T02:23:24;39.33;;;21.75;;
52742;SDS011;55583;53.012;6.556;2022-11-15T02:26:03;48.45;;;25.35;;
52742;SDS011;55583;53.012;6.556;2022-11-15T02:39:35;50.03;;;24.15;;
52742;SDS011;55583;53.012;6.556;2022-11-15T02:42:09;47.78;;;25.83;;
52742;SDS011;55583;53.012;6.556;2022-11-15T02:44:58;45.97;;;24.02;;
52742;SDS011;55583;53.012;6.556;2022-11-15T02:47:29;49.38;;;24.27;;
52742;SDS011;55583;53.012;6.556;2022-11-15T02:50:05;45.13;;;24.52;;
52742;SDS011;55583;53.012;6.556;2022-11-15T02:52:33;44.80;;;23.77;;
52742;SDS011;55583;53.012;6.556;2022-11-15T02:54:59;44.20;;;23.17;;
52742;SDS011;55583;53.012;6.556;2022-11-15T03:00:16;45.28;;;24.55;;
52742;SDS011;55583;53.012;6.556;2022-11-15T03:05:37;48.05;;;24.00;;
52742;SDS011;55583;53.012;6.556;2022-11-15T03:11:03;41.90;;;22.17;;
52742;SDS011;55583;53.012;6.556;2022-11-15T03:16:29;48.30;;;24.80;;
52742;SDS011;55583;53.012;6.556;2022-11-15T03:19:08;51.30;;;24.60;;
52742;SDS011;55583;53.012;6.556;2022-11-15T03:21:59;51.13;;;25.42;;
52742;SDS011;55583;53.012;6.556;2022-11-15T03:24:28;52.30;;;24.75;;
52742;SDS011;55583;53.012;6.556;2022-11-15T03:26:56;49.17;;;24.02;;
52742;SDS011;55583;53.012;6.556;2022-11-15T03:29:28;53.35;;;26.05;;
52742;SDS011;55583;53.012;6.556;2022-11-15T03:31:59;49.10;;;23.00;;
52742;SDS011;55583;53.012;6.556;2022-11-15T03:34:32;54.78;;;25.52;;
52742;SDS011;55583;53.012;6.556;2022-11-15T03:37:02;60.72;;;25.52;;
52742;SDS011;55583;53.012;6.556;2022-11-15T03:39:28;61.95;;;25.70;;
52742;SDS011;55583;53.012;6.556;2022-11-15T03:44:52;56.40;;;26.48;;
52742;SDS011;55583;53.012;6.556;2022-11-15T03:47:38;70.45;;;27.90;;
52742;SDS011;55583;53.012;6.556;2022-11-15T03:50:12;61.60;;;27.02;;
52742;SDS011;55583;53.012;6.556;2022-11-15T03:52:41;61.83;;;26.65;;
52742;SDS011;55583;53.012;6.556;2022-11-15T03:55:11;66.45;;;28.23;;
52742;SDS011;55583;53.012;6.556;2022-11-15T03:57:38;76.43;;;30.85;;
52742;SDS011;55583;53.012;6.556;2022-11-15T04:00:04;91.28;;;31.70;;
52742;SDS011;55583;53.012;6.556;2022-11-15T04:02:30;88.40;;;32.63;;
52742;SDS011;55583;53.012;6.556;2022-11-15T04:04:56;73.00;;;31.33;;
52742;SDS011;55583;53.012;6.556;2022-11-15T04:07:22;80.88;;;33.25;;
52742;SDS011;55583;53.012;6.556;2022-11-15T04:09:47;76.40;;;30.80;;
52742;SDS011;55583;53.012;6.556;2022-11-15T04:12:31;83.15;;;30.25;;
52742;SDS011;55583;53.012;6.556;2022-11-15T04:15:00;82.68;;;31.85;;
52742;SDS011;55583;53.012;6.556;2022-11-15T04:20:07;95.97;;;34.13;;
52742;SDS011;55583;53.012;6.556;2022-11-15T04:23:00;91.95;;;32.63;;
52742;SDS011;55583;53.012;6.556;2022-11-15T04:25:45;95.75;;;33.22;;
52742;SDS011;55583;53.012;6.556;2022-11-15T04:28:15;111.93;;;35.63;;
52742;SDS011;55583;53.012;6.556;2022-11-15T04:30:41;87.90;;;34.47;;
52742;SDS011;55583;53.012;6.556;2022-11-15T04:33:06;110.43;;;37.35;;
52742;SDS011;55583;53.012;6.556;2022-11-15T04:35:32;104.40;;;37.88;;
52742;SDS011;55583;53.012;6.556;2022-11-15T04:37:58;120.80;;;40.58;;
52742;SDS011;55583;53.012;6.556;2022-11-15T04:40:24;96.88;;;36.25;;
52742;SDS011;55583;53.012;6.556;2022-11-15T04:42:50;108.70;;;39.78;;
52742;SDS011;55583;53.012;6.556;2022-11-15T04:45:15;127.30;;;41.05;;
52742;SDS011;55583;53.012;6.556;2022-11-15T04:47:43;109.80;;;38.70;;
52742;SDS011;55583;53.012;6.556;2022-11-15T04:50:10;118.90;;;40.83;;
52742;SDS011;55583;53.012;6.556;2022-11-15T04:52:39;117.35;;;41.13;;
52742;SDS011;55583;53.012;6.556;2022-11-15T04:55:11;118.90;;;41.95;;
52742;SDS011;55583;53.012;6.556;2022-11-15T04:57:37;128.63;;;42.97;;
52742;SDS011;55583;53.012;6.556;2022-11-15T05:00:04;170.45;;;51.22;;
52742;SDS011;55583;53.012;6.556;2022-11-15T05:02:31;162.82;;;49.55;;
52742;SDS011;55583;53.012;6.556;2022-11-15T05:05:15;160.05;;;50.33;;
52742;SDS011;55583;53.012;6.556;2022-11-15T05:07:41;130.13;;;43.85;;
52742;SDS011;55583;53.012;6.556;2022-11-15T05:10:07;145.80;;;46.00;;
52742;SDS011;55583;53.012;6.556;2022-11-15T05:12:33;173.10;;;49.30;;
52742;SDS011;55583;53.012;6.556;2022-11-15T05:14:59;127.55;;;44.20;;
52742;SDS011;55583;53.012;6.556;2022-11-15T05:17:24;145.90;;;45.88;;
52742;SDS011;55583;53.012;6.556;2022-11-15T05:19:50;171.45;;;47.95;;
52742;SDS011;55583;53.012;6.556;2022-11-15T05:22:17;141.40;;;45.33;;
52742;SDS011;55583;53.012;6.556;2022-11-15T05:24:43;163.98;;;49.55;;
52742;SDS011;55583;53.012;6.556;2022-11-15T05:27:12;182.75;;;53.30;;
52742;SDS011;55583;53.012;6.556;2022-11-15T05:29:37;149.30;;;47.42;;
52742;SDS011;55583;53.012;6.556;2022-11-15T05:32:03;153.02;;;47.78;;
52742;SDS011;55583;53.012;6.556;2022-11-15T05:34:30;167.82;;;54.03;;
52742;SDS011;55583;53.012;6.556;2022-11-15T05:36:57;197.27;;;54.75;;
52742;SDS011;55583;53.012;6.556;2022-11-15T05:39:23;169.75;;;50.97;;
52742;SDS011;55583;53.012;6.556;2022-11-15T05:41:52;153.57;;;50.08;;
52742;SDS011;55583;53.012;6.556;2022-11-15T05:44:32;144.65;;;46.60;;
52742;SDS011;55583;53.012;6.556;2022-11-15T05:47:01;173.73;;;50.30;;
52742;SDS011;55583;53.012;6.556;2022-11-15T05:49:31;134.82;;;48.15;;
52742;SDS011;55583;53.012;6.556;2022-11-15T05:52:00;157.80;;;49.28;;
52742;SDS011;55583;53.012;6.556;2022-11-15T05:54:30;137.70;;;49.70;;
52742;SDS011;55583;53.012;6.556;2022-11-15T05:56:57;140.85;;;49.03;;
52742;SDS011;55583;53.012;6.556;2022-11-15T05:59:23;121.25;;;45.40;;
52742;SDS011;55583;53.012;6.556;2022-11-15T06:01:49;133.43;;;48.47;;
52742;SDS011;55583;53.012;6.556;2022-11-15T06:04:15;124.35;;;46.42;;
52742;SDS011;55583;53.012;6.556;2022-11-15T06:06:40;152.27;;;53.15;;
52742;SDS011;55583;53.012;6.556;2022-11-15T06:09:06;127.70;;;48.25;;
52742;SDS011;55583;53.012;6.556;2022-11-15T06:11:31;133.18;;;48.80;;
52742;SDS011;55583;53.012;6.556;2022-11-15T06:13:57;131.32;;;46.78;;
52742;SDS011;55583;53.012;6.556;2022-11-15T06:16:23;130.38;;;47.63;;
52742;SDS011;55583;53.012;6.556;2022-11-15T06:18:48;134.82;;;47.38;;
52742;SDS011;55583;53.012;6.556;2022-11-15T06:21:14;142.52;;;48.80;;
52742;SDS011;55583;53.012;6.556;2022-11-15T06:23:39;132.50;;;47.53;;
52742;SDS011;55583;53.012;6.556;2022-11-15T06:26:05;132.95;;;47.95;;
52742;SDS011;55583;53.012;6.556;2022-11-15T06:28:31;126.60;;;47.25;;
52742;SDS011;55583;53.012;6.556;2022-11-15T06:31:04;124.88;;;46.03;;
52742;SDS011;55583;53.012;6.556;2022-11-15T06:33:31;139.95;;;47.88;;
52742;SDS011;55583;53.012;6.556;2022-11-15T06:36:02;161.45;;;53.55;;
52742;SDS011;55583;53.012;6.556;2022-11-15T06:38:29;137.88;;;45.72;;
52742;SDS011;55583;53.012;6.556;2022-11-15T06:40:54;117.50;;;45.42;;
52742;SDS011;55583;53.012;6.556;2022-11-15T06:43:25;145.90;;;50.65;;
52742;SDS011;55583;53.012;6.556;2022-11-15T06:45:51;121.70;;;44.72;;
52742;SDS011;55583;53.012;6.556;2022-11-15T06:48:16;123.43;;;44.90;;
52742;SDS011;55583;53.012;6.556;2022-11-15T06:50:42;135.07;;;47.25;;
52742;SDS011;55583;53.012;6.556;2022-11-15T06:53:08;127.20;;;45.83;;
52742;SDS011;55583;53.012;6.556;2022-11-15T06:55:33;135.85;;;48.70;;
52742;SDS011;55583;53.012;6.556;2022-11-15T06:58:01;110.82;;;41.38;;
52742;SDS011;55583;53.012;6.556;2022-11-15T07:00:27;117.78;;;41.83;;
52742;SDS011;55583;53.012;6.556;2022-11-15T07:02:52;121.18;;;46.35;;
52742;SDS011;55583;53.012;6.556;2022-11-15T07:05:18;97.72;;;39.75;;
52742;SDS011;55583;53.012;6.556;2022-11-15T07:07:50;133.20;;;47.10;;
52742;SDS011;55583;53.012;6.556;2022-11-15T07:10:19;98.20;;;41.55;;
52742;SDS011;55583;53.012;6.556;2022-11-15T07:12:48;104.90;;;39.97;;
52742;SDS011;55583;53.012;6.556;2022-11-15T07:15:15;109.68;;;41.83;;
52742;SDS011;55583;53.012;6.556;2022-11-15T07:17:41;112.40;;;41.45;;
52742;SDS011;55583;53.012;6.556;2022-11-15T07:20:06;112.00;;;44.22;;
52742;SDS011;55583;53.012;6.556;2022-11-15T07:22:32;121.40;;;44.55;;
52742;SDS011;55583;53.012;6.556;2022-11-15T07:24:58;125.88;;;46.55;;
52742;SDS011;55583;53.012;6.556;2022-11-15T07:27:24;102.13;;;39.72;;
52742;SDS011;55583;53.012;6.556;2022-11-15T07:29:49;121.88;;;43.88;;
52742;SDS011;55583;53.012;6.556;2022-11-15T07:32:15;110.95;;;42.75;;
52742;SDS011;55583;53.012;6.556;2022-11-15T07:34:41;91.53;;;39.92;;
52742;SDS011;55583;53.012;6.556;2022-11-15T07:37:07;90.10;;;38.30;;
52742;SDS011;55583;53.012;6.556;2022-11-15T07:39:33;116.53;;;44.03;;
52742;SDS011;55583;53.012;6.556;2022-11-15T07:41:59;99.60;;;40.72;;
52742;SDS011;55583;53.012;6.556;2022-11-15T07:44:43;89.85;;;37.97;;
52742;SDS011;55583;53.012;6.556;2022-11-15T07:47:09;97.78;;;39.22;;
52742;SDS011;55583;53.012;6.556;2022-11-15T07:49:35;96.60;;;39.78;;
52742;SDS011;55583;53.012;6.556;2022-11-15T07:52:00;92.07;;;37.85;;
52742;SDS011;55583;53.012;6.556;2022-11-15T07:54:26;90.32;;;39.47;;
52742;SDS011;55583;53.012;6.556;2022-11-15T07:56:51;88.85;;;37.55;;
52742;SDS011;55583;53.012;6.556;2022-11-15T07:59:17;105.78;;;41.95;;
52742;SDS011;55583;53.012;6.556;2022-11-15T08:01:44;98.28;;;37.28;;
52742;SDS011;55583;53.012;6.556;2022-11-15T08:04:10;69.03;;;34.15;;
52742;SDS011;55583;53.012;6.556;2022-11-15T08:06:36;73.18;;;33.97;;
52742;SDS011;55583;53.012;6.556;2022-11-15T08:09:02;75.80;;;34.97;;
52742;SDS011;55583;53.012;6.556;2022-11-15T08:11:28;70.90;;;34.35;;
52742;SDS011;55583;53.012;6.556;2022-11-15T08:13:53;72.38;;;33.78;;
52742;SDS011;55583;53.012;6.556;2022-11-15T08:16:19;59.22;;;30.50;;
52742;SDS011;55583;53.012;6.556;2022-11-15T08:18:45;58.50;;;31.85;;
52742;SDS011;55583;53.012;6.556;2022-11-15T08:21:11;63.55;;;31.20;;
52742;SDS011;55583;53.012;6.556;2022-11-15T08:23:42;60.50;;;31.10;;
52742;SDS011;55583;53.012;6.556;2022-11-15T08:26:08;60.78;;;30.23;;
52742;SDS011;55583;53.012;6.556;2022-11-15T08:28:34;49.15;;;28.63;;
52742;SDS011;55583;53.012;6.556;2022-11-15T08:31:00;60.72;;;30.63;;
52742;SDS011;55583;53.012;6.556;2022-11-15T08:33:27;64.65;;;31.00;;
52742;SDS011;55583;53.012;6.556;2022-11-15T08:35:55;55.42;;;29.65;;
52742;SDS011;55583;53.012;6.556;2022-11-15T08:38:22;54.13;;;28.75;;
52742;SDS011;55583;53.012;6.556;2022-11-15T08:40:48;55.47;;;29.52;;
52742;SDS011;55583;53.012;6.556;2022-11-15T08:43:15;49.25;;;27.08;;
52742;SDS011;55583;53.012;6.556;2022-11-15T08:45:41;47.92;;;27.40;;
52742;SDS011;55583;53.012;6.556;2022-11-15T08:48:07;43.75;;;26.33;;
52742;SDS011;55583;53.012;6.556;2022-11-15T08:50:32;47.90;;;27.70;;
52742;SDS011;55583;53.012;6.556;2022-11-15T08:53:07;44.53;;;26.63;;
52742;SDS011;55583;53.012;6.556;2022-11-15T08:55:35;46.45;;;26.92;;
52742;SDS011;55583;53.012;6.556;2022-11-15T08:58:02;51.08;;;27.98;;
52742;SDS011;55583;53.012;6.556;2022-11-15T09:00:28;48.92;;;26.58;;
52742;SDS011;55583;53.012;6.556;2022-11-15T09:02:57;48.70;;;28.92;;
52742;SDS011;55583;53.012;6.556;2022-11-15T09:05:24;39.70;;;24.00;;
52742;SDS011;55583;53.012;6.556;2022-11-15T09:07:53;45.20;;;24.63;;
52742;SDS011;55583;53.012;6.556;2022-11-15T09:10:20;46.15;;;24.80;;
52742;SDS011;55583;53.012;6.556;2022-11-15T09:12:46;41.65;;;23.50;;
52742;SDS011;55583;53.012;6.556;2022-11-15T09:15:13;43.28;;;26.15;;
52742;SDS011;55583;53.012;6.556;2022-11-15T09:17:40;42.78;;;24.60;;
52742;SDS011;55583;53.012;6.556;2022-11-15T09:20:06;41.40;;;24.42;;
52742;SDS011;55583;53.012;6.556;2022-11-15T09:22:32;34.33;;;23.20;;
52742;SDS011;55583;53.012;6.556;2022-11-15T09:24:58;39.15;;;23.70;;
52742;SDS011;55583;53.012;6.556;2022-11-15T09:27:27;38.13;;;23.98;;
52742;SDS011;55583;53.012;6.556;2022-11-15T09:29:53;45.10;;;24.08;;
52742;SDS011;55583;53.012;6.556;2022-11-15T09:32:19;40.58;;;23.50;;
52742;SDS011;55583;53.012;6.556;2022-11-15T09:34:44;41.72;;;23.85;;
52742;SDS011;55583;53.012;6.556;2022-11-15T09:37:10;37.42;;;22.98;;
52742;SDS011;55583;53.012;6.556;2022-11-15T09:39:37;35.33;;;22.90;;
52742;SDS011;55583;53.012;6.556;2022-11-15T09:50:49;74.53;;;22.77;;
52742;SDS011;55583;53.012;6.556;2022-11-15T09:56:14;39.17;;;22.80;;
52742;SDS011;55583;53.012;6.556;2022-11-15T10:04:26;34.78;;;20.23;;
52742;SDS011;55583;53.012;6.556;2022-11-15T10:06:54;30.17;;;18.77;;
52742;SDS011;55583;53.012;6.556;2022-11-15T10:12:22;31.13;;;19.40;;
52742;SDS011;55583;53.012;6.556;2022-11-15T10:14:49;28.88;;;19.73;;
52742;SDS011;55583;53.012;6.556;2022-11-15T10:23:21;33.08;;;19.38;;
52742;SDS011;55583;53.012;6.556;2022-11-15T10:25:50;27.98;;;17.73;;
52742;SDS011;55583;53.012;6.556;2022-11-15T10:28:26;25.05;;;18.52;;
52742;SDS011;55583;53.012;6.556;2022-11-15T10:30:59;32.00;;;20.58;;
52742;SDS011;55583;53.012;6.556;2022-11-15T10:41:13;33.50;;;20.83;;
52742;SDS011;55583;53.012;6.556;2022-11-15T10:43:41;38.67;;;22.90;;
52742;SDS011;55583;53.012;6.556;2022-11-15T10:46:20;41.95;;;25.70;;
52742;SDS011;55583;53.012;6.556;2022-11-15T10:48:47;38.50;;;23.17;;
52742;SDS011;55583;53.012;6.556;2022-11-15T10:51:23;39.05;;;23.17;;
52742;SDS011;55583;53.012;6.556;2022-11-15T10:53:56;39.13;;;23.40;;
52742;SDS011;55583;53.012;6.556;2022-11-15T10:56:24;35.45;;;20.40;;
52742;SDS011;55583;53.012;6.556;2022-11-15T10:58:56;27.23;;;19.25;;
52742;SDS011;55583;53.012;6.556;2022-11-15T11:01:23;29.33;;;19.00;;
52742;SDS011;55583;53.012;6.556;2022-11-15T11:04:03;24.90;;;17.63;;
52742;SDS011;55583;53.012;6.556;2022-11-15T11:06:49;22.63;;;16.63;;
52742;SDS011;55583;53.012;6.556;2022-11-15T11:09:23;26.77;;;16.05;;
52742;SDS011;55583;53.012;6.556;2022-11-15T11:11:59;21.00;;;13.75;;
52742;SDS011;55583;53.012;6.556;2022-11-15T11:14:29;18.70;;;13.23;;
52742;SDS011;55583;53.012;6.556;2022-11-15T11:20:07;20.20;;;13.05;;
52742;SDS011;55583;53.012;6.556;2022-11-15T11:27:43;12.90;;;8.43;;
52742;SDS011;55583;53.012;6.556;2022-11-15T11:30:14;14.68;;;7.82;;
52742;SDS011;55583;53.012;6.556;2022-11-15T11:32:57;9.68;;;6.80;;
52742;SDS011;55583;53.012;6.556;2022-11-15T11:41:20;10.80;;;7.10;;
52742;SDS011;55583;53.012;6.556;2022-11-15T11:52:27;5.38;;;3.60;;
52742;SDS011;55583;53.012;6.556;2022-11-15T11:55:32;8.02;;;3.88;;
52742;SDS011;55583;53.012;6.556;2022-11-15T12:01:33;9.45;;;3.05;;
52742;SDS011;55583;53.012;6.556;2022-11-15T12:04:04;11.07;;;4.45;;
52742;SDS011;55583;53.012;6.556;2022-11-15T12:09:23;8.88;;;3.60;;
52742;SDS011;55583;53.012;6.556;2022-11-15T12:12:07;6.07;;;3.33;;
52742;SDS011;55583;53.012;6.556;2022-11-15T12:14:48;7.45;;;3.47;;
52742;SDS011;55583;53.012;6.556;2022-11-15T12:17:24;6.57;;;2.75;;
52742;SDS011;55583;53.012;6.556;2022-11-15T12:19:56;8.07;;;3.33;;
52742;SDS011;55583;53.012;6.556;2022-11-15T12:22:28;6.97;;;2.75;;
52742;SDS011;55583;53.012;6.556;2022-11-15T12:30:17;7.28;;;3.20;;
52742;SDS011;55583;53.012;6.556;2022-11-15T12:35:35;7.95;;;4.00;;
52742;SDS011;55583;53.012;6.556;2022-11-15T12:38:04;7.25;;;4.25;;
52742;SDS011;55583;53.012;6.556;2022-11-15T12:40:35;11.20;;;5.70;;
52742;SDS011;55583;53.012;6.556;2022-11-15T12:43:10;11.23;;;4.88;;
52742;SDS011;55583;53.012;6.556;2022-11-15T12:46:10;8.88;;;4.15;;
52742;SDS011;55583;53.012;6.556;2022-11-15T12:51:03;9.77;;;4.60;;
52742;SDS011;55583;53.012;6.556;2022-11-15T12:53:30;10.85;;;4.85;;
52742;SDS011;55583;53.012;6.556;2022-11-15T12:58:45;10.48;;;4.63;;
52742;SDS011;55583;53.012;6.556;2022-11-15T13:06:45;6.40;;;3.40;;
52742;SDS011;55583;53.012;6.556;2022-11-15T13:14:53;5.38;;;3.17;;
52742;SDS011;55583;53.012;6.556;2022-11-15T13:17:28;7.47;;;3.75;;
52742;SDS011;55583;53.012;6.556;2022-11-15T13:30:39;6.15;;;3.42;;
52742;SDS011;55583;53.012;6.556;2022-11-15T13:33:51;3.92;;;2.88;;
52742;SDS011;55583;53.012;6.556;2022-11-15T13:36:05;7.07;;;3.47;;
52742;SDS011;55583;53.012;6.556;2022-11-15T13:38:34;4.75;;;2.90;;
52742;SDS011;55583;53.012;6.556;2022-11-15T13:43:41;8.82;;;2.97;;
52742;SDS011;55583;53.012;6.556;2022-11-15T13:48:42;3.78;;;2.50;;
52742;SDS011;55583;53.012;6.556;2022-11-15T13:51:44;4.43;;;2.22;;
52742;SDS011;55583;53.012;6.556;2022-11-15T13:56:52;4.10;;;2.28;;
52742;SDS011;55583;53.012;6.556;2022-11-15T13:59:34;5.43;;;2.15;;
52742;SDS011;55583;53.012;6.556;2022-11-15T14:02:12;3.38;;;2.13;;
52742;SDS011;55583;53.012;6.556;2022-11-15T14:04:45;7.57;;;2.20;;
52742;SDS011;55583;53.012;6.556;2022-11-15T14:07:20;5.88;;;2.08;;
52742;SDS011;55583;53.012;6.556;2022-11-15T14:09:47;4.65;;;2.10;;
52742;SDS011;55583;53.012;6.556;2022-11-15T14:17:57;2.97;;;2.00;;
52742;SDS011;55583;53.012;6.556;2022-11-15T14:20:28;5.72;;;2.55;;
52742;SDS011;55583;53.012;6.556;2022-11-15T14:23:03;3.85;;;1.58;;
52742;SDS011;55583;53.012;6.556;2022-11-15T14:25:56;7.30;;;1.70;;
52742;SDS011;55583;53.012;6.556;2022-11-15T14:30:48;3.22;;;1.50;;
52742;SDS011;55583;53.012;6.556;2022-11-15T14:33:29;3.72;;;1.60;;
52742;SDS011;55583;53.012;6.556;2022-11-15T14:38:42;5.65;;;1.45;;
52742;SDS011;55583;53.012;6.556;2022-11-15T14:41:17;6.95;;;1.50;;
52742;SDS011;55583;53.012;6.556;2022-11-15T14:43:44;5.35;;;1.50;;
52742;SDS011;55583;53.012;6.556;2022-11-15T14:46:10;6.07;;;2.25;;
52742;SDS011;55583;53.012;6.556;2022-11-15T14:48:36;6.57;;;2.47;;
52742;SDS011;55583;53.012;6.556;2022-11-15T14:51:01;3.65;;;2.10;;
52742;SDS011;55583;53.012;6.556;2022-11-15T14:53:27;2.55;;;1.83;;
52742;SDS011;55583;53.012;6.556;2022-11-15T14:55:53;5.28;;;2.60;;
52742;SDS011;55583;53.012;6.556;2022-11-15T14:58:19;5.07;;;2.40;;
52742;SDS011;55583;53.012;6.556;2022-11-15T15:00:44;6.90;;;2.85;;
52742;SDS011;55583;53.012;6.556;2022-11-15T15:03:10;5.13;;;3.03;;
52742;SDS011;55583;53.012;6.556;2022-11-15T15:05:40;10.40;;;3.83;;
52742;SDS011;55583;53.012;6.556;2022-11-15T15:08:07;15.68;;;4.60;;
52742;SDS011;55583;53.012;6.556;2022-11-15T15:10:34;10.13;;;4.68;;
52742;SDS011;55583;53.012;6.556;2022-11-15T15:13:03;13.15;;;4.60;;
52742;SDS011;55583;53.012;6.556;2022-11-15T15:15:33;7.82;;;3.75;;
52742;SDS011;55583;53.012;6.556;2022-11-15T15:18:01;14.07;;;4.45;;
52742;SDS011;55583;53.012;6.556;2022-11-15T15:20:29;14.65;;;6.65;;
52742;SDS011;55583;53.012;6.556;2022-11-15T15:22:55;15.23;;;5.03;;
52742;SDS011;55583;53.012;6.556;2022-11-15T15:25:22;13.68;;;5.72;;
52742;SDS011;55583;53.012;6.556;2022-11-15T15:27:52;11.90;;;5.70;;
52742;SDS011;55583;53.012;6.556;2022-11-15T15:30:19;15.85;;;5.43;;
52742;SDS011;55583;53.012;6.556;2022-11-15T15:32:45;12.40;;;6.25;;
52742;SDS011;55583;53.012;6.556;2022-11-15T15:35:11;9.95;;;6.03;;
52742;SDS011;55583;53.012;6.556;2022-11-15T15:37:38;11.20;;;6.60;;
52742;SDS011;55583;53.012;6.556;2022-11-15T15:40:08;7.00;;;5.28;;
52742;SDS011;55583;53.012;6.556;2022-11-15T15:42:40;10.88;;;5.07;;
52742;SDS011;55583;53.012;6.556;2022-11-15T15:45:06;8.80;;;5.50;;
52742;SDS011;55583;53.012;6.556;2022-11-15T15:47:33;14.13;;;6.18;;
52742;SDS011;55583;53.012;6.556;2022-11-15T15:49:58;10.18;;;5.40;;
52742;SDS011;55583;53.012;6.556;2022-11-15T15:52:24;8.60;;;5.07;;
52742;SDS011;55583;53.012;6.556;2022-11-15T15:54:50;8.30;;;4.60;;
52742;SDS011;55583;53.012;6.556;2022-11-15T15:57:15;10.93;;;5.13;;
52742;SDS011;55583;53.012;6.556;2022-11-15T15:59:41;9.35;;;4.97;;
52742;SDS011;55583;53.012;6.556;2022-11-15T16:02:13;7.63;;;5.57;;
52742;SDS011;55583;53.012;6.556;2022-11-15T16:04:39;7.93;;;4.83;;
52742;SDS011;55583;53.012;6.556;2022-11-15T16:07:05;7.18;;;5.32;;
52742;SDS011;55583;53.012;6.556;2022-11-15T16:09:33;7.32;;;5.45;;
52742;SDS011;55583;53.012;6.556;2022-11-15T16:12:17;6.80;;;5.50;;
52742;SDS011;55583;53.012;6.556;2022-11-15T16:14:45;8.68;;;5.35;;
52742;SDS011;55583;53.012;6.556;2022-11-15T16:17:15;6.70;;;4.75;;
52742;SDS011;55583;53.012;6.556;2022-11-15T16:19:44;7.78;;;5.15;;
52742;SDS011;55583;53.012;6.556;2022-11-15T16:22:10;9.57;;;4.50;;
52742;SDS011;55583;53.012;6.556;2022-11-15T16:24:36;7.53;;;5.20;;
52742;SDS011;55583;53.012;6.556;2022-11-15T16:27:01;7.45;;;4.65;;
52742;SDS011;55583;53.012;6.556;2022-11-15T16:29:27;8.20;;;5.32;;
52742;SDS011;55583;53.012;6.556;2022-11-15T16:31:53;9.27;;;6.35;;
52742;SDS011;55583;53.012;6.556;2022-11-15T16:34:22;7.05;;;5.38;;
52742;SDS011;55583;53.012;6.556;2022-11-15T16:36:47;7.60;;;5.82;;
52742;SDS011;55583;53.012;6.556;2022-11-15T16:39:13;5.45;;;4.65;;
52742;SDS011;55583;53.012;6.556;2022-11-15T16:41:42;6.18;;;5.15;;
52742;SDS011;55583;53.012;6.556;2022-11-15T16:44:11;9.82;;;5.30;;
52742;SDS011;55583;53.012;6.556;2022-11-15T16:46:38;7.47;;;5.40;;
52742;SDS011;55583;53.012;6.556;2022-11-15T16:49:10;6.78;;;4.53;;
52742;SDS011;55583;53.012;6.556;2022-11-15T16:51:38;7.32;;;5.40;;
52742;SDS011;55583;53.012;6.556;2022-11-15T16:54:05;10.10;;;5.55;;
52742;SDS011;55583;53.012;6.556;2022-11-15T16:56:31;10.63;;;5.35;;
52742;SDS011;55583;53.012;6.556;2022-11-15T16:58:58;20.20;;;5.10;;
52742;SDS011;55583;53.012;6.556;2022-11-15T17:01:26;7.25;;;4.90;;
52742;SDS011;55583;53.012;6.556;2022-11-15T17:03:53;5.70;;;4.18;;
52742;SDS011;55583;53.012;6.556;2022-11-15T17:06:23;8.85;;;3.50;;